• Join FlightAware (Why Join?)
  • Login
  • US Flag 
02:12PM EDT


 

Airport Tracker/Info


-or-


 

Live Flight TrackerFlight Track Log ✈ GJS6221 ✈ 30-Dec-2013 ✈ KLGA - KSAV

Flight Track Log - Related Links

Times and Time Zones

All times are in EST time to prevent confusion due to time zone crossing. See the GJS6221 flight status page for this flight to view local times or setup timezone preferences in your user account.

Time Position Orientation Groundspeed Altitude Reporting Facility
EST Latitude Longitude Course Direction KTS MPH feet Rate Location/Type
02:17PM 40.8500 -73.8667 311° West 187 215 4,000  Level New York TRACON
02:18PM 40.8833 -73.9167 311° West 227 261 6,100 2,640 Climbing New York TRACON
02:19PM 40.8500 -74.0000 242° Southwest 247 284 9,300 2,760 Climbing New York TRACON
02:20PM 40.7833 -74.0167 191° South 248 285 12,000 1,020 Climbing New York TRACON
02:22PM 40.6711 -74.0928 207° Southwest 296 341 12,000  Level New York Center
02:23PM 40.6111 -74.1525 217° Southwest 308 354 12,000 420 Level New York Center
02:24PM 40.5328 -74.1953 203° Southwest 308 354 12,900 1,680 Climbing New York Center
02:25PM 40.4289 -74.1844 175° South 319 367 15,400 2,400 Climbing New York Center
02:26PM 40.3419 -74.1667 171° South 347 399 17,700 1,920 Climbing New York Center
02:27PM 40.2181 -74.2250 200° South 317 365 20,300 1,680 Climbing Washington Center
02:28PM 40.1503 -74.2914 217° Southwest 306 352 22,000 1,680 Climbing Washington Center
02:29PM 40.0800 -74.3606 217° Southwest 311 358 23,800 960 Climbing Washington Center
02:30PM 40.0078 -74.4294 216° Southwest 316 364 23,900 300 Climbing Washington Center
02:31PM 39.9397 -74.4983 218° Southwest 321 369 24,500 1,020 Climbing Washington Center
02:32PM 39.8675 -74.5642 215° Southwest 321 369 26,000 1,320 Climbing Washington Center
02:33PM 39.7931 -74.6356 216° Southwest 315 362 27,200 1,080 Climbing Washington Center
02:34PM 39.7247 -74.7039 218° Southwest 315 362 28,200 720 Climbing Washington Center
02:35PM 39.6544 -74.7722 217° Southwest 315 362 28,700 660 Climbing Washington Center
02:36PM 39.5842 -74.8403 217° Southwest 320 368 29,600 960 Climbing Washington Center
02:37PM 39.5136 -74.9083 217° Southwest 320 368 30,700 1,020 Climbing Washington Center
02:38PM 39.4453 -74.9761 217° Southwest 320 368 31,700 1,020 Climbing Washington Center
02:39PM 39.3747 -75.0439 217° Southwest 320 368 32,800 1,140 Climbing Washington Center
02:40PM 39.3061 -75.1061 215° Southwest 314 361 34,000 1,080 Climbing Washington Center
02:41PM 39.2231 -75.1469 201° Southwest 314 361 35,100 840 Climbing Washington Center
02:42PM 39.1544 -75.1767 199° South 319 367 35,700 780 Climbing Washington Center
02:43PM 39.0544 -75.2175 198° South 319 367 36,700 600 Climbing Washington Center
02:44PM 38.9794 -75.2553 201° Southwest 319 367 37,000 600 Climbing Washington Center
02:45PM 38.9044 -75.2847 197° South 319 367 38,000 480 Climbing Washington Center
02:46PM 38.7983 -75.3253 197° South 416 479 38,000  Level Washington Center
02:47PM 38.7108 -75.3656 200° South 380 437 38,000  Level Washington Center
02:48PM 38.6172 -75.4003 196° South 361 415 38,000  Level Washington Center
02:49PM 38.5253 -75.4406 199° South 349 402 38,000  Level Washington Center
02:50PM 38.4378 -75.4778 198° South 343 395 38,000  Level Washington Center
02:51PM 38.3503 -75.5150 198° South 343 395 38,000  Level Washington Center
02:52PM 38.2753 -75.5786 214° Southwest 336 387 38,000  Level Washington Center
02:53PM 38.2022 -75.6444 215° Southwest 324 373 38,000  Level Washington Center
02:54PM 38.1333 -75.7078 216° Southwest 324 373 38,000  Level Washington Center
02:55PM 38.0625 -75.7789 218° Southwest 324 373 38,000  Level Washington Center
02:56PM 37.9872 -75.8472 216° Southwest 329 379 38,000  Level Washington Center
02:57PM 37.9119 -75.9156 216° Southwest 336 387 38,000  Level Washington Center
02:58PM 37.8367 -75.9861 217° Southwest 341 392 38,000  Level Washington Center
02:59PM 37.7719 -76.0542 220° Southwest 341 392 38,000  Level Washington Center
03:00PM 37.6964 -76.1219 215° Southwest 341 392 38,000  Level Washington Center
03:01PM 37.6128 -76.1922 214° Southwest 341 392 38,000  Level Washington Center
03:02PM 37.5372 -76.2622 216° Southwest 336 387 38,000  Level Washington Center
03:03PM 37.4597 -76.3297 215° Southwest 341 392 38,000  Level Washington Center
03:04PM 37.3717 -76.3836 206° Southwest 346 398 38,000  Level Washington Center
03:05PM 37.2839 -76.4375 206° Southwest 352 405 38,000  Level Washington Center
03:06PM 37.1936 -76.4914 205° Southwest 357 411 38,000  Level Washington Center
03:07PM 37.1056 -76.5450 206° Southwest 357 411 38,000  Level Washington Center
03:08PM 37.0178 -76.5961 205° Southwest 357 411 38,000  Level Washington Center
03:09PM 36.9297 -76.6494 206° Southwest 357 411 38,000  Level Washington Center
03:10PM 36.8394 -76.7053 206° Southwest 357 411 38,000  Level Washington Center
03:11PM 36.7492 -76.7558 204° Southwest 362 417 38,000  Level Washington Center
03:12PM 36.6694 -76.8064 207° Southwest 362 417 38,000  Level Washington Center
03:13PM 36.5750 -76.8619 205° Southwest 357 411 38,000  Level Washington Center
03:14PM 36.4867 -76.9147 206° Southwest 357 411 38,000  Level Washington Center
03:15PM 36.4092 -76.9572 204° Southwest 357 411 38,000  Level Washington Center
03:16PM 36.3103 -77.0175 206° Southwest 352 405 38,000  Level Washington Center
03:17PM 36.2222 -77.0672 204° Southwest 357 411 38,000  Level Washington Center
03:18PM 36.1339 -77.1222 207° Southwest 357 411 38,000  Level Washington Center
03:19PM 36.0561 -77.1644 204° Southwest 357 411 38,000  Level Washington Center
03:20PM 35.9656 -77.2164 205° Southwest 357 411 38,000  Level Washington Center
03:21PM 35.8772 -77.2686 206° Southwest 362 417 38,000  Level Washington Center
03:22PM 35.7869 -77.3203 205° Southwest 362 417 38,000  Level Washington Center
03:23PM 35.6942 -77.3719 204° Southwest 362 417 38,000  Level Washington Center
03:24PM 35.6036 -77.4264 206° Southwest 362 417 38,000  Level Washington Center
03:25PM 35.5111 -77.4778 204° Southwest 362 417 38,000  Level Washington Center
03:26PM 35.4206 -77.5292 205° Southwest 362 417 38,000  Level Washington Center
03:27PM 35.3403 -77.5958 214° Southwest 362 417 38,000  Level Washington Center
03:28PM 35.2719 -77.6756 224° Southwest 350 403 38,000  Level Washington Center
03:29PM 35.2017 -77.7553 223° Southwest 350 403 38,000  Level Washington Center
03:30PM 35.1356 -77.8347 225° Southwest 344 396 38,000  Level Washington Center
03:31PM 35.0694 -77.9114 224° Southwest 338 389 38,000  Level Washington Center
03:32PM 35.0033 -77.9908 225° Southwest 332 382 38,000  Level Washington Center
03:33PM 34.9369 -78.0697 224° Southwest 332 382 38,000  Level Washington Center
03:34PM 34.8686 -78.1489 224° Southwest 332 382 38,000  Level Washington Center
03:35PM 34.7978 -78.2400 227° Southwest 332 382 38,000 -60 Level Washington Center
03:36PM 34.7250 -78.3211 223° Southwest 339 390 37,900  Descending Washington Center
03:38PM 34.6053 -78.4531 222° Southwest 349 402 38,000  Climbing Jacksonville Center
03:39PM 34.5369 -78.5297 223° Southwest 343 395 38,000  Level Jacksonville Center
03:40PM 34.4750 -78.6108 227° Southwest 336 387 38,000  Level Jacksonville Center
03:41PM 34.4069 -78.6897 224° Southwest 341 392 38,000  Level Jacksonville Center
03:42PM 34.3364 -78.7686 223° Southwest 341 392 38,000 -60 Level Jacksonville Center
03:43PM 34.2681 -78.8447 223° Southwest 341 392 37,900 -540 Descending Jacksonville Center
03:44PM 34.2036 -78.9206 224° Southwest 341 392 37,000 -960 Descending Jacksonville Center
03:45PM 34.1331 -79.0017 224° Southwest 341 392 36,000 -1,020 Descending Jacksonville Center
03:46PM 34.0625 -79.0800 223° Southwest 346 398 35,000 -1,020 Descending Jacksonville Center
03:47PM 33.9919 -79.1581 223° Southwest 351 404 34,000 -1,020 Descending Jacksonville Center
03:48PM 33.9211 -79.2386 223° Southwest 356 410 33,000 -1,020 Descending Jacksonville Center
03:49PM 33.8483 -79.3192 223° Southwest 361 415 32,000 -1,020 Descending Jacksonville Center
03:50PM 33.7756 -79.3997 223° Southwest 361 415 31,000 -1,080 Descending Jacksonville Center
03:51PM 33.7047 -79.4797 223° Southwest 356 410 29,900 -1,080 Descending Jacksonville Center
03:52PM 33.6317 -79.5625 223° Southwest 361 415 28,900 -1,020 Descending Jacksonville Center
03:53PM 33.5589 -79.6425 223° Southwest 361 415 27,900 -1,260 Descending Jacksonville Center
03:54PM 33.4897 -79.7222 224° Southwest 356 410 26,400 -1,500 Descending Jacksonville Center
03:55PM 33.4147 -79.8044 222° Southwest 361 415 24,900 -1,380 Descending Jacksonville Center
03:56PM 33.3558 -79.8686 222° Southwest 361 415 23,700 -1,560 Descending Jacksonville Center
03:57PM 33.2683 -79.9661 223° Southwest 361 415 21,900 -1,500 Descending Jacksonville Center
03:58PM 33.2053 -80.0378 224° Southwest 361 415 20,700 -960 Descending Jacksonville Center
03:59PM 33.1319 -80.1194 223° Southwest 347 399 20,000 -360 Descending Jacksonville Center
04:00PM 33.0647 -80.1958 224° Southwest 339 390 20,000  Level Jacksonville Center
04:01PM 32.9911 -80.2722 221° Southwest 363 418 20,000 -300 Level Jacksonville Center
04:02PM 32.9236 -80.3436 222° Southwest 349 402 19,500 -1,080 Descending Jacksonville Center
04:03PM 32.8564 -80.4197 224° Southwest 349 402 17,900 -1,800 Descending Jacksonville Center
04:04PM 32.7889 -80.4931 222° Southwest 343 395 16,000 -1,920 Descending Jacksonville Center
04:05PM 32.7214 -80.5667 223° Southwest 337 388 14,100 -1,920 Descending Jacksonville Center
04:06PM 32.6517 -80.6425 222° Southwest 337 388 12,200 -1,500 Descending Jacksonville Center
04:07PM 32.5881 -80.7081 221° Southwest 329 379 11,200 -1,500 Descending Jacksonville Center
04:08PM 32.5331 -80.7733 225° Southwest 269 310 9,300 -1,620 Descending Jacksonville Center
04:09PM 32.4836 -80.8239 221° Southwest 262 302 8,000 -1,320 Descending Jacksonville Center
04:10PM 32.4261 -80.8842 222° Southwest 262 302 6,700 -1,680 Descending Jacksonville Center
04:11PM 32.3728 -80.9394 221° Southwest 262 302 4,700 -1,380 Descending Jacksonville Center
04:12PM 32.3172 -80.9922 219° Southwest 257 296 4,000 -1,140 Descending Jacksonville Center
04:13PM 32.2678 -81.0400 219° Southwest 252 290 2,500 -1,020 Descending Jacksonville Center
04:14PM 32.1950 -81.0661 197° South 242 278 2,000 -300 Descending Jacksonville Center
04:15PM 32.1325 -81.0697 183° South 242 278 2,000  Level Jacksonville Center
04:16PM 32.0722 -81.0808 189° South 237 273 2,000  Level Jacksonville Center
04:17PM 32.0331 -81.1108 213° Southwest 190 219 2,000  Level Jacksonville Center
04:18PM 32.0169 -81.1653 251° West 175 201 2,000 -240 Level Jacksonville Center
04:19PM 32.0425 -81.1989 312° West 144 166 1,600 -600 Descending Jacksonville Center
04:20PM 32.0781 -81.2033 354° North 107 123 800 -660 Descending Jacksonville Center
04:21PM 32.1072 -81.2028 North 121 139 300 11,640 Descending Jacksonville Center
04:22PM 32.1386 -81.2119 346° North 121 139 24,000 23,700 Climbing Jacksonville Center
04:24PM 32.1276 -81.2021 North  Level Estimated
04:31PM 32.1276 -81.2021 North  Level Estimated
04:32PM 32.1276 -81.2021 North  Level Estimated
04:33PM 32.1276 -81.2021 North  Level Estimated